Brooks, Maine
Current Conditions -  °F | °C
As of 8:53 PM on Thursday 20 Nov 2014 (Local Time) from KBGR Reporting Station
Overcast Overcast  
Wind Chill: 24°   Ceiling: 5500
Heat Index: 30°   Visibility: 10mi
Dew Point: 20°   Wind: 6mph
Humidity: 66%   Direction: 310°NW
Pressure: 29.8"   Gusts: NA
Location:  44.55°N, 69.12°W
Report Text: KBGR 210153Z 31005KT 10SM OVC055 M01/M07 A2980 RMK AO2 SLP094 T10111067
Loading
Personal Weather Stations






























Interactive Weather Map New forecast layout! Learn more

10-Day Weather Forecast

Advertisements
Track Severe Weather on mobile